Time;durP1;ratioP1;P1;durP2;ratioP2;P2;SDS_P1;SDS_P2;PMS_P1;PMS_P2;Temp;Humidity;BMP_temperature;BMP_pressure;BME280_temperature;BME280_humidity;BME280_pressure;Samples;Min_cycle;Max_cycle;Signal;HPM_P1;HPM_P2
2022/09/08 00:00:03;;;;;;;2.13;2.00;;;;;;;;;;5034647;28;20284;-81
2022/09/08 00:02:29;;;;;;;4.00;2.30;;;;;;;;;;5017994;28;20186;-81
2022/09/08 00:04:55;;;;;;;2.53;2.10;;;;;;;;;;5017800;28;20244;-81
2022/09/08 00:07:21;;;;;;;2.93;2.20;;;;;;;;;;5034620;28;20186;-81
2022/09/08 00:09:47;;;;;;;2.40;2.07;;;;;;;;;;5018314;28;20206;-81
2022/09/08 00:12:15;;;;;;;2.37;2.10;;;;;;;;;;5018193;28;20202;-81
2022/09/08 00:14:41;;;;;;;2.20;2.00;;;;;;;;;;5034790;28;20171;-81
2022/09/08 00:17:07;;;;;;;2.50;2.30;;;;;;;;;;5017652;28;20242;-81
2022/09/08 00:19:33;;;;;;;2.20;2.00;;;;;;;;;;5017973;28;20229;-81
2022/09/08 00:21:59;;;;;;;2.93;2.20;;;;;;;;;;5017950;28;20212;-81
2022/09/08 00:24:25;;;;;;;2.40;2.20;;;;;;;;;;4998869;28;20218;-81
2022/09/08 00:26:51;;;;;;;3.57;2.43;;;;;;;;;;5015064;28;20190;-81
2022/09/08 00:29:17;;;;;;;3.13;2.73;;;;;;;;;;5014732;28;20199;-81
2022/09/08 00:31:44;;;;;;;2.97;2.60;;;;;;;;;;5014667;28;20226;-81
2022/09/08 00:34:10;;;;;;;2.80;2.60;;;;;;;;;;5018238;28;20702;-81
2022/09/08 00:36:37;;;;;;;3.53;2.63;;;;;;;;;;5034601;28;20181;-81
2022/09/08 00:39:03;;;;;;;4.53;2.47;;;;;;;;;;5018164;28;20198;-81
2022/09/08 00:44:39;;;;;;;3.03;2.73;;;;;;;;;;5035943;28;20193;-81
2022/09/08 00:47:07;;;;;;;3.50;2.50;;;;;;;;;;5034815;28;20273;-81
2022/09/08 00:49:33;;;;;;;4.77;2.83;;;;;;;;;;5034386;28;20225;-82
2022/09/08 00:52:00;;;;;;;3.93;2.63;;;;;;;;;;5034467;28;20230;-81
2022/09/08 00:54:26;;;;;;;2.77;2.50;;;;;;;;;;5018171;28;20596;-81
2022/09/08 00:56:53;;;;;;;5.50;2.80;;;;;;;;;;5009896;28;20182;-81
2022/09/08 00:59:22;;;;;;;2.70;2.50;;;;;;;;;;5027225;28;20218;-81
2022/09/08 01:01:48;;;;;;;2.47;2.27;;;;;;;;;;5014935;28;20183;-81
2022/09/08 01:04:14;;;;;;;2.90;2.60;;;;;;;;;;4998402;28;20190;-81
2022/09/08 01:12:44;;;;;;;2.90;2.50;;;;;;;;;;5015889;28;20232;-81
2022/09/08 01:15:11;;;;;;;3.70;2.10;;;;;;;;;;5015878;28;20171;-81
2022/09/08 01:17:38;;;;;;;6.03;2.50;;;;;;;;;;5017627;28;20186;-81
2022/09/08 01:20:07;;;;;;;3.43;2.23;;;;;;;;;;5014360;28;20210;-81
2022/09/08 01:22:53;;;;;;;4.30;2.87;;;;;;;;;;5014969;28;20167;-81
2022/09/08 01:25:20;;;;;;;2.50;2.30;;;;;;;;;;5015463;28;20167;-81
2022/09/08 01:27:48;;;;;;;3.27;2.60;;;;;;;;;;5015884;28;20163;-81
2022/09/08 01:30:14;;;;;;;2.83;2.33;;;;;;;;;;5015799;28;20163;-81
2022/09/08 01:32:42;;;;;;;4.03;3.13;;;;;;;;;;5014750;28;20662;-81
2022/09/08 01:35:08;;;;;;;4.13;3.43;;;;;;;;;;5014849;28;20186;-80
2022/09/08 01:37:34;;;;;;;4.00;3.30;;;;;;;;;;5014716;28;20174;-81
2022/09/08 01:40:02;;;;;;;3.53;3.23;;;;;;;;;;5014528;28;20220;-81
2022/09/08 01:42:33;;;;;;;3.40;3.10;;;;;;;;;;5015666;28;20207;-81
2022/09/08 01:44:59;;;;;;;5.83;3.47;;;;;;;;;;5014550;28;20259;-81
2022/09/08 01:47:25;;;;;;;4.37;3.20;;;;;;;;;;5014875;28;20214;-81
2022/09/08 01:49:51;;;;;;;4.00;2.70;;;;;;;;;;5014990;28;20194;-81
2022/09/08 01:52:18;;;;;;;4.00;3.10;;;;;;;;;;5014970;28;20743;-81
2022/09/08 01:54:43;;;;;;;4.10;3.00;;;;;;;;;;5015114;28;20176;-81
2022/09/08 01:57:10;;;;;;;3.63;3.10;;;;;;;;;;5015492;28;20183;-81
2022/09/08 01:59:36;;;;;;;5.53;2.57;;;;;;;;;;5014901;28;20539;-81
2022/09/08 02:02:03;;;;;;;3.80;2.93;;;;;;;;;;5015430;28;20190;-81
2022/09/08 02:04:29;;;;;;;4.47;3.23;;;;;;;;;;5015689;28;20179;-81
2022/09/08 02:06:55;;;;;;;3.63;3.03;;;;;;;;;;5015247;28;20194;-81
2022/09/08 02:09:21;;;;;;;3.47;2.60;;;;;;;;;;5017342;28;20218;-81
2022/09/08 02:11:48;;;;;;;3.47;3.00;;;;;;;;;;5015641;28;20249;-81
2022/09/08 02:14:14;;;;;;;3.77;2.90;;;;;;;;;;5016304;28;20175;-81
2022/09/08 02:16:42;;;;;;;3.70;3.40;;;;;;;;;;5016351;28;20265;-81
2022/09/08 02:19:08;;;;;;;3.57;2.90;;;;;;;;;;5015912;28;20301;-81
2022/09/08 02:21:34;;;;;;;4.43;3.10;;;;;;;;;;5016270;28;20214;-81
2022/09/08 02:24:00;;;;;;;5.60;3.80;;;;;;;;;;5016629;28;20225;-81
2022/09/08 02:26:28;;;;;;;4.27;3.87;;;;;;;;;;5017396;28;20186;-81
2022/09/08 02:28:54;;;;;;;4.87;3.70;;;;;;;;;;5020780;28;20245;-81
2022/09/08 02:31:21;;;;;;;4.13;3.50;;;;;;;;;;5025283;28;20210;-81
2022/09/08 02:33:47;;;;;;;4.63;3.60;;;;;;;;;;5039936;28;20256;-81
2022/09/08 02:36:14;;;;;;;4.37;3.40;;;;;;;;;;5024030;28;20202;-81
2022/09/08 02:38:40;;;;;;;3.83;3.00;;;;;;;;;;5040107;28;20198;-81
2022/09/08 02:41:08;;;;;;;3.30;3.00;;;;;;;;;;5023586;28;20196;-81
2022/09/08 02:43:35;;;;;;;4.13;3.13;;;;;;;;;;5040523;28;20183;-81
2022/09/08 02:46:08;;;;;;;3.93;3.27;;;;;;;;;;5040648;28;20196;-81
2022/09/08 02:48:34;;;;;;;4.53;3.03;;;;;;;;;;5024418;28;20206;-81
2022/09/08 02:51:01;;;;;;;3.50;3.10;;;;;;;;;;5040668;28;20260;-81
2022/09/08 02:53:28;;;;;;;3.43;2.80;;;;;;;;;;5041500;28;20185;-81
2022/09/08 02:55:54;;;;;;;5.00;3.17;;;;;;;;;;5040843;28;20714;-81
2022/09/08 02:58:20;;;;;;;2.73;2.40;;;;;;;;;;5024770;28;20696;-81
2022/09/08 03:00:46;;;;;;;3.90;3.20;;;;;;;;;;5024162;28;20178;-81
2022/09/08 03:03:12;;;;;;;3.47;2.80;;;;;;;;;;5041099;28;20175;-81
2022/09/08 03:05:38;;;;;;;3.37;2.40;;;;;;;;;;5041432;28;20179;-81
2022/09/08 03:08:04;;;;;;;3.67;2.70;;;;;;;;;;5025148;28;20330;-81
2022/09/08 03:10:31;;;;;;;2.80;2.60;;;;;;;;;;5041570;28;20240;-81
2022/09/08 03:12:58;;;;;;;3.83;2.33;;;;;;;;;;5045547;28;20174;-81
2022/09/08 03:15:25;;;;;;;2.60;2.40;;;;;;;;;;5046721;28;20181;-81
2022/09/08 03:17:52;;;;;;;4.03;2.23;;;;;;;;;;5040943;28;20170;-81
2022/09/08 03:20:18;;;;;;;3.23;2.77;;;;;;;;;;5037460;28;20159;-81
2022/09/08 03:22:44;;;;;;;2.43;2.00;;;;;;;;;;5035487;28;20182;-81
2022/09/08 03:25:10;;;;;;;2.50;2.30;;;;;;;;;;5035991;28;20204;-81
2022/09/08 03:27:36;;;;;;;3.13;2.50;;;;;;;;;;5035826;28;20655;-81
2022/09/08 03:30:06;;;;;;;2.60;2.27;;;;;;;;;;5035833;28;20579;-81
2022/09/08 03:32:35;;;;;;;2.97;2.37;;;;;;;;;;5036769;28;20199;-81
2022/09/08 03:35:02;;;;;;;3.40;2.60;;;;;;;;;;5035477;28;20543;-81
2022/09/08 03:37:28;;;;;;;5.10;2.80;;;;;;;;;;5035302;28;20201;-81
2022/09/08 03:39:54;;;;;;;4.50;2.70;;;;;;;;;;5018277;28;20209;-81
2022/09/08 03:42:47;;;;;;;3.17;2.80;;;;;;;;;;5035525;28;20178;-81
2022/09/08 03:45:15;;;;;;;4.33;3.10;;;;;;;;;;5035765;28;20626;-81
2022/09/08 03:47:42;;;;;;;3.97;2.90;;;;;;;;;;5019447;28;20178;-81
2022/09/08 03:50:08;;;;;;;3.23;2.90;;;;;;;;;;5019601;28;20231;-81
2022/09/08 03:52:34;;;;;;;3.70;3.07;;;;;;;;;;5035419;28;20289;-81
2022/09/08 03:55:01;;;;;;;4.47;3.00;;;;;;;;;;5035249;28;20213;-80
2022/09/08 03:57:28;;;;;;;3.83;2.97;;;;;;;;;;5018024;28;20644;-80
2022/09/08 03:59:56;;;;;;;3.53;3.17;;;;;;;;;;5033816;28;20202;-80
2022/09/08 04:02:22;;;;;;;3.80;3.03;;;;;;;;;;5018229;28;20178;-80
2022/09/08 04:04:49;;;;;;;4.97;3.23;;;;;;;;;;5034027;28;20276;-80
2022/09/08 04:07:15;;;;;;;3.50;3.20;;;;;;;;;;5034194;28;20710;-80
2022/09/08 04:09:42;;;;;;;3.80;2.90;;;;;;;;;;5033815;28;20198;-80
2022/09/08 04:12:08;;;;;;;4.17;2.70;;;;;;;;;;5034129;28;20542;-80
2022/09/08 04:14:34;;;;;;;3.70;2.93;;;;;;;;;;5034182;28;20178;-80
2022/09/08 04:17:00;;;;;;;5.10;3.03;;;;;;;;;;5034158;28;20591;-80
2022/09/08 04:19:26;;;;;;;5.40;3.10;;;;;;;;;;5034599;28;20210;-80
2022/09/08 04:21:52;;;;;;;3.20;2.90;;;;;;;;;;5034382;28;20174;-80
2022/09/08 04:24:19;;;;;;;3.20;2.90;;;;;;;;;;5018082;28;20659;-80
2022/09/08 04:26:45;;;;;;;5.30;3.10;;;;;;;;;;5018053;28;20178;-80
2022/09/08 04:29:11;;;;;;;4.43;3.27;;;;;;;;;;5033986;28;20206;-80
2022/09/08 04:31:37;;;;;;;4.13;3.33;;;;;;;;;;5034065;28;20294;-80
2022/09/08 04:34:04;;;;;;;4.27;3.10;;;;;;;;;;5035249;28;20194;-80
2022/09/08 04:36:30;;;;;;;3.63;3.00;;;;;;;;;;5017839;28;20179;-80
2022/09/08 04:38:57;;;;;;;6.77;3.60;;;;;;;;;;5028597;28;20211;-80
2022/09/08 04:41:31;;;;;;;4.17;3.40;;;;;;;;;;4998005;28;20187;-80
2022/09/08 04:44:00;;;;;;;3.90;2.80;;;;;;;;;;5014278;28;20241;-80
2022/09/08 04:46:26;;;;;;;4.10;2.17;;;;;;;;;;5014315;28;20182;-84
2022/09/08 04:48:52;;;;;;;3.23;2.30;;;;;;;;;;4997885;28;20199;-84
2022/09/08 04:51:19;;;;;;;3.30;2.30;;;;;;;;;;5012968;28;20257;-85
2022/09/08 04:53:45;;;;;;;4.10;3.03;;;;;;;;;;5032902;28;20182;-84
2022/09/08 04:56:11;;;;;;;5.23;3.10;;;;;;;;;;5034384;28;20523;-84
2022/09/08 04:58:39;;;;;;;3.50;2.63;;;;;;;;;;5033662;28;20201;-84
2022/09/08 05:01:06;;;;;;;3.00;2.37;;;;;;;;;;5033409;28;20243;-84
2022/09/08 05:03:32;;;;;;;3.73;2.63;;;;;;;;;;5016359;28;20716;-85
2022/09/08 05:06:03;;;;;;;2.93;2.20;;;;;;;;;;5032468;28;20228;-85
2022/09/08 05:08:29;;;;;;;4.63;2.13;;;;;;;;;;5032759;28;20198;-84
2022/09/08 05:10:55;;;;;;;2.77;2.20;;;;;;;;;;5016162;28;20206;-83
2022/09/08 05:13:21;;;;;;;5.23;2.43;;;;;;;;;;5016711;28;20720;-77
2022/09/08 05:15:47;;;;;;;2.57;2.13;;;;;;;;;;5016952;28;20178;-79
2022/09/08 05:18:13;;;;;;;2.97;2.37;;;;;;;;;;5016679;28;20552;-80
2022/09/08 05:20:39;;;;;;;4.40;2.40;;;;;;;;;;5033367;28;20228;-77
2022/09/08 05:23:05;;;;;;;2.13;1.98;;;;;;;;;;5017154;28;20186;-80
2022/09/08 05:25:31;;;;;;;5.20;1.98;;;;;;;;;;5032867;28;20271;-79
2022/09/08 05:27:57;;;;;;;3.50;2.20;;;;;;;;;;5032949;28;20177;-79
2022/09/08 05:30:23;;;;;;;2.17;1.98;;;;;;;;;;5032733;28;20517;-79
2022/09/08 05:32:49;;;;;;;3.53;2.00;;;;;;;;;;5016285;28;20316;-88
2022/09/08 05:35:15;;;;;;;2.53;2.20;;;;;;;;;;5015688;28;20167;-87
2022/09/08 05:37:41;;;;;;;2.38;1.90;;;;;;;;;;5015328;28;20175;-87
2022/09/08 05:40:07;;;;;;;3.65;2.38;;;;;;;;;;5031375;28;20611;-87
2022/09/08 05:42:42;;;;;;;4.45;3.03;;;;;;;;;;5031582;28;20205;-87
2022/09/08 05:45:08;;;;;;;3.85;3.08;;;;;;;;;;5015605;28;20166;-87
2022/09/08 05:47:35;;;;;;;3.75;2.85;;;;;;;;;;5015753;28;20186;-86
2022/09/08 05:50:01;;;;;;;4.68;3.00;;;;;;;;;;5015006;28;20751;-86
2022/09/08 05:52:31;;;;;;;3.13;2.77;;;;;;;;;;5015395;28;20206;-86
2022/09/08 05:54:57;;;;;;;3.83;2.50;;;;;;;;;;5016212;28;20178;-85
2022/09/08 05:57:23;;;;;;;3.50;2.27;;;;;;;;;;5015435;28;20236;-86
2022/09/08 05:59:49;;;;;;;4.60;3.03;;;;;;;;;;5026618;28;20232;-85
2022/09/08 06:02:15;;;;;;;4.00;3.03;;;;;;;;;;5014787;28;20183;-86
2022/09/08 06:04:40;;;;;;;4.83;3.10;;;;;;;;;;5015430;28;20186;-85
2022/09/08 06:07:06;;;;;;;3.40;3.00;;;;;;;;;;5015395;28;20314;-87
2022/09/08 06:09:32;;;;;;;3.40;3.10;;;;;;;;;;5031225;28;20229;-86
2022/09/08 06:12:10;;;;;;;4.80;3.10;;;;;;;;;;5014634;28;20213;-85
2022/09/08 06:14:36;;;;;;;3.73;3.00;;;;;;;;;;5014872;28;20536;-85
2022/09/08 06:17:02;;;;;;;3.47;2.67;;;;;;;;;;5016711;28;20625;-80
2022/09/08 06:19:28;;;;;;;2.97;2.77;;;;;;;;;;5016686;28;20220;-80
2022/09/08 06:21:54;;;;;;;3.70;3.33;;;;;;;;;;5016873;28;20186;-80
2022/09/08 06:24:20;;;;;;;3.07;2.80;;;;;;;;;;5033364;28;20586;-79
2022/09/08 06:26:57;;;;;;;3.00;2.60;;;;;;;;;;5016635;28;20191;-80
2022/09/08 06:29:29;;;;;;;4.33;2.60;;;;;;;;;;5033446;28;20289;-82
2022/09/08 06:32:01;;;;;;;3.30;2.53;;;;;;;;;;5033343;28;20260;-81
2022/09/08 06:34:28;;;;;;;4.50;2.97;;;;;;;;;;5032379;28;20186;-82
2022/09/08 06:37:01;;;;;;;2.63;2.43;;;;;;;;;;5016198;28;20182;-81
2022/09/08 06:39:31;;;;;;;3.77;2.67;;;;;;;;;;5032935;28;20209;-82
2022/09/08 06:42:02;;;;;;;4.33;2.90;;;;;;;;;;5032077;28;20182;-82
2022/09/08 06:44:30;;;;;;;3.38;3.05;;;;;;;;;;5033210;28;20179;-80
2022/09/08 06:46:57;;;;;;;3.27;2.97;;;;;;;;;;5034216;28;20185;-82
2022/09/08 06:49:26;;;;;;;2.92;2.40;;;;;;;;;;5016538;28;20206;-83
2022/09/08 06:52:00;;;;;;;2.90;2.57;;;;;;;;;;5016735;28;20234;-84
2022/09/08 06:54:46;;;;;;;2.50;2.30;;;;;;;;;;5032864;28;20237;-80
2022/09/08 06:57:23;;;;;;;5.53;2.30;;;;;;;;;;5033739;28;20174;-81
2022/09/08 06:59:52;;;;;;;2.50;2.30;;;;;;;;;;5033228;28;20237;-82
2022/09/08 07:02:40;;;;;;;3.88;2.95;;;;;;;;;;5035163;28;20205;-82
2022/09/08 07:05:26;;;;;;;3.35;2.92;;;;;;;;;;5034681;28;20567;-82
2022/09/08 07:07:55;;;;;;;3.83;2.88;;;;;;;;;;5033460;28;20182;-84
2022/09/08 07:10:29;;;;;;;3.03;2.40;;;;;;;;;;5032467;28;20527;-84
2022/09/08 07:13:07;;;;;;;2.83;2.55;;;;;;;;;;5031813;28;20186;-84
2022/09/08 07:15:37;;;;;;;3.45;3.05;;;;;;;;;;5035170;28;20254;-84
2022/09/08 07:18:03;;;;;;;2.83;2.53;;;;;;;;;;5034306;28;20190;-84
2022/09/08 07:20:29;;;;;;;2.50;2.30;;;;;;;;;;5034636;28;20206;-84
2022/09/08 07:23:02;;;;;;;2.80;2.45;;;;;;;;;;5018213;28;20186;-86
2022/09/08 07:25:31;;;;;;;3.00;2.20;;;;;;;;;;5034390;28;20269;-85
2022/09/08 07:28:10;;;;;;;2.53;2.33;;;;;;;;;;5018037;28;20194;-87
2022/09/08 07:30:37;;;;;;;3.30;3.00;;;;;;;;;;5033921;28;20170;-85
2022/09/08 07:33:08;;;;;;;3.38;2.40;;;;;;;;;;5015593;28;20175;-87
2022/09/08 07:35:40;;;;;;;2.78;2.38;;;;;;;;;;5014739;28;20258;-85
2022/09/08 07:38:11;;;;;;;3.10;2.80;;;;;;;;;;5014726;28;20237;-85
2022/09/08 07:40:43;;;;;;;3.40;2.27;;;;;;;;;;5020966;28;20179;-83
2022/09/08 07:43:10;;;;;;;3.10;2.80;;;;;;;;;;5025477;28;20645;-83
2022/09/08 07:45:56;;;;;;;3.53;2.70;;;;;;;;;;5020741;28;20175;-84
2022/09/08 07:48:31;;;;;;;3.40;3.10;;;;;;;;;;5013397;28;20199;-84
2022/09/08 07:51:08;;;;;;;3.50;3.20;;;;;;;;;;5018917;28;20203;-83
2022/09/08 07:53:46;;;;;;;3.53;2.93;;;;;;;;;;5030669;28;20185;-83
2022/09/08 07:59:49;;;;;;;2.50;2.30;;;;;;;;;;5014791;28;20249;-84
2022/09/08 08:02:31;;;;;;;2.93;2.47;;;;;;;;;;5030465;28;20246;-84
2022/09/08 08:04:57;;;;;;;3.13;2.80;;;;;;;;;;5030607;28;20183;-84
2022/09/08 08:07:30;;;;;;;2.73;2.40;;;;;;;;;;5033324;28;20196;-84
2022/09/08 08:10:02;;;;;;;2.60;2.40;;;;;;;;;;5018058;28;20209;-84
2022/09/08 08:12:28;;;;;;;3.83;2.60;;;;;;;;;;5013494;28;20234;-84
2022/09/08 08:15:02;;;;;;;2.63;2.43;;;;;;;;;;5013836;28;20179;-84
2022/09/08 08:17:40;;;;;;;2.50;2.30;;;;;;;;;;5013737;28;20183;-83
2022/09/08 08:20:18;;;;;;;2.17;2.07;;;;;;;;;;5013292;28;20301;-83
2022/09/08 08:22:53;;;;;;;2.97;2.50;;;;;;;;;;5013935;28;20277;-84
2022/09/08 08:25:29;;;;;;;2.50;2.30;;;;;;;;;;5013160;28;20664;-84
2022/09/08 08:27:54;;;;;;;3.80;2.67;;;;;;;;;;5013987;28;20182;-84
2022/09/08 08:30:22;;;;;;;3.00;2.20;;;;;;;;;;5013456;28;20182;-83
2022/09/08 08:33:08;;;;;;;2.50;2.30;;;;;;;;;;5013693;28;20243;-80
2022/09/08 08:35:40;;;;;;;2.53;2.33;;;;;;;;;;4990519;28;20179;-83
2022/09/08 08:38:10;;;;;;;2.70;2.50;;;;;;;;;;5013579;28;20199;-83
2022/09/08 08:40:41;;;;;;;2.40;2.20;;;;;;;;;;5013462;28;20179;-83
2022/09/08 08:43:11;;;;;;;2.30;2.10;;;;;;;;;;5013349;28;20175;-83
2022/09/08 08:46:12;;;;;;;2.13;2.00;;;;;;;;;;5013318;28;20262;-83
2022/09/08 08:48:46;;;;;;;3.07;2.13;;;;;;;;;;4955013;28;20200;-82
2022/09/08 08:51:27;;;;;;;2.73;2.10;;;;;;;;;;5002136;28;20218;-83
2022/09/08 08:54:12;;;;;;;2.10;1.80;;;;;;;;;;5012515;28;20186;-83
2022/09/08 08:56:38;;;;;;;1.80;1.70;;;;;;;;;;5012548;28;20179;-82
2022/09/08 08:59:23;;;;;;;2.90;1.70;;;;;;;;;;5012120;28;20195;-83
2022/09/08 09:02:13;;;;;;;1.50;1.40;;;;;;;;;;5010836;28;20283;-85
2022/09/08 09:04:52;;;;;;;1.60;1.50;;;;;;;;;;5012462;28;20185;-83
2022/09/08 09:07:37;;;;;;;1.50;1.40;;;;;;;;;;5012969;28;20183;-83
2022/09/08 09:10:10;;;;;;;1.60;1.50;;;;;;;;;;5012181;28;20576;-83
2022/09/08 09:12:55;;;;;;;1.30;1.20;;;;;;;;;;5012335;28;20222;-83
2022/09/08 09:15:30;;;;;;;1.30;1.20;;;;;;;;;;5012668;28;20178;-82
2022/09/08 09:18:13;;;;;;;1.60;1.13;;;;;;;;;;5012588;28;20182;-83
2022/09/08 09:20:56;;;;;;;1.40;1.30;;;;;;;;;;5012505;28;20183;-83
2022/09/08 09:23:35;;;;;;;1.70;1.60;;;;;;;;;;5012438;28;20167;-83
2022/09/08 09:26:16;;;;;;;1.50;1.40;;;;;;;;;;5013060;28;20175;-83
2022/09/08 09:29:05;;;;;;;1.53;1.43;;;;;;;;;;5012594;28;20198;-83
2022/09/08 09:31:31;;;;;;;1.70;1.60;;;;;;;;;;5012484;28;20606;-83
2022/09/08 09:33:57;;;;;;;1.70;1.60;;;;;;;;;;5012489;28;20229;-82
2022/09/08 09:36:23;;;;;;;1.77;1.57;;;;;;;;;;5011862;28;20171;-83
2022/09/08 09:39:08;;;;;;;2.00;1.90;;;;;;;;;;5012547;28;20201;-83
2022/09/08 09:41:42;;;;;;;2.53;1.60;;;;;;;;;;5012692;28;20207;-84
2022/09/08 09:44:18;;;;;;;1.90;1.80;;;;;;;;;;5012616;28;20211;-85
2022/09/08 09:46:56;;;;;;;2.80;1.77;;;;;;;;;;5012675;28;20231;-83
2022/09/08 09:49:41;;;;;;;1.80;1.70;;;;;;;;;;5012600;28;20681;-84
2022/09/08 09:52:24;;;;;;;2.00;1.67;;;;;;;;;;5012298;28;20209;-83
2022/09/08 09:54:57;;;;;;;1.87;1.70;;;;;;;;;;5012485;28;20171;-83
2022/09/08 09:57:46;;;;;;;1.90;1.80;;;;;;;;;;5012987;28;20174;-83
2022/09/08 10:00:17;;;;;;;1.73;1.63;;;;;;;;;;5012513;28;20175;-83
2022/09/08 10:03:09;;;;;;;1.50;1.40;;;;;;;;;;4997041;28;20186;-83
2022/09/08 10:05:34;;;;;;;1.83;1.60;;;;;;;;;;5017717;28;20224;-83
2022/09/08 10:08:00;;;;;;;1.30;1.20;;;;;;;;;;5028438;28;20246;-83
2022/09/08 10:10:30;;;;;;;1.70;1.40;;;;;;;;;;5029544;28;20186;-84
2022/09/08 10:13:05;;;;;;;1.87;1.10;;;;;;;;;;5034717;28;20271;-83
2022/09/08 10:15:34;;;;;;;0.90;0.90;;;;;;;;;;5030828;28;20275;-84
2022/09/08 10:18:09;;;;;;;0.97;0.93;;;;;;;;;;5035426;28;20174;-83
2022/09/08 10:21:06;;;;;;;1.03;0.97;;;;;;;;;;4980648;22;20259;-82
2022/09/08 10:23:35;;;;;;;1.00;1.00;;;;;;;;;;4951812;29;20205;-78
2022/09/08 10:26:10;;;;;;;1.00;1.00;;;;;;;;;;4950352;29;20666;-75
2022/09/08 10:28:40;;;;;;;1.53;0.90;;;;;;;;;;4950802;29;20642;-75
2022/09/08 10:31:33;;;;;;;0.93;0.80;;;;;;;;;;4950444;28;20307;-74
2022/09/08 10:34:05;;;;;;;0.80;0.80;;;;;;;;;;4950584;28;20604;-75
2022/09/08 10:36:52;;;;;;;0.90;0.90;;;;;;;;;;4950194;28;20181;-76
2022/09/08 10:39:36;;;;;;;0.80;0.80;;;;;;;;;;4956485;28;20205;-77
2022/09/08 10:42:02;;;;;;;1.00;1.00;;;;;;;;;;4950516;28;20224;-76
2022/09/08 10:44:53;;;;;;;1.13;0.90;;;;;;;;;;4950419;28;20615;-76
2022/09/08 10:47:40;;;;;;;1.37;1.00;;;;;;;;;;4968710;28;20204;-76
2022/09/08 10:50:19;;;;;;;1.67;0.93;;;;;;;;;;4953219;28;20237;-76
2022/09/08 10:53:02;;;;;;;1.10;0.90;;;;;;;;;;4953358;28;20212;-76
2022/09/08 10:55:34;;;;;;;1.10;1.00;;;;;;;;;;4953283;28;20177;-76
2022/09/08 10:58:10;;;;;;;1.23;1.00;;;;;;;;;;4953291;28;20264;-76
2022/09/08 11:00:44;;;;;;;1.03;1.00;;;;;;;;;;4954208;28;20197;-76
2022/09/08 11:03:28;;;;;;;1.17;1.07;;;;;;;;;;4953674;28;20638;-76
2022/09/08 11:06:07;;;;;;;1.20;1.10;;;;;;;;;;4953412;28;20184;-76
2022/09/08 11:08:39;;;;;;;1.20;1.10;;;;;;;;;;4953015;28;20173;-76
2022/09/08 11:11:33;;;;;;;1.23;1.13;;;;;;;;;;4953270;28;20213;-76
2022/09/08 11:13:59;;;;;;;1.10;1.00;;;;;;;;;;4953121;28;20179;-76
2022/09/08 11:16:41;;;;;;;1.10;1.00;;;;;;;;;;4953072;28;20639;-75
2022/09/08 11:19:22;;;;;;;1.43;1.10;;;;;;;;;;4953876;28;20209;-76
2022/09/08 11:22:07;;;;;;;1.10;1.00;;;;;;;;;;4953259;28;20542;-76
2022/09/08 11:24:53;;;;;;;0.83;0.83;;;;;;;;;;4953019;28;20208;-76
2022/09/08 11:27:25;;;;;;;2.47;1.00;;;;;;;;;;4952659;28;20187;-76
2022/09/08 11:30:10;;;;;;;1.23;1.13;;;;;;;;;;4952717;28;20200;-76
2022/09/08 11:32:43;;;;;;;1.17;1.00;;;;;;;;;;4953928;28;20201;-76
2022/09/08 11:35:21;;;;;;;1.20;1.00;;;;;;;;;;4953133;28;20212;-76
2022/09/08 11:38:03;;;;;;;1.40;1.20;;;;;;;;;;4953051;28;20177;-75
2022/09/08 11:40:54;;;;;;;1.77;1.00;;;;;;;;;;4952519;28;20192;-76
2022/09/08 11:43:28;;;;;;;2.10;1.20;;;;;;;;;;4933888;29;20170;-75
2022/09/08 11:46:04;;;;;;;2.03;1.17;;;;;;;;;;4933829;29;20181;-76
2022/09/08 11:48:49;;;;;;;1.57;1.20;;;;;;;;;;4933340;29;20648;-76
2022/09/08 11:51:33;;;;;;;2.73;1.20;;;;;;;;;;4934858;29;20205;-76
2022/09/08 11:54:18;;;;;;;1.40;1.30;;;;;;;;;;4933424;29;20174;-76
2022/09/08 11:56:54;;;;;;;1.30;1.20;;;;;;;;;;4933377;29;20216;-76
2022/09/08 11:59:32;;;;;;;1.33;1.23;;;;;;;;;;4937679;29;20200;-75
2022/09/08 12:02:13;;;;;;;1.45;1.30;;;;;;;;;;4952087;28;20185;-76
2022/09/08 12:04:44;;;;;;;2.08;1.27;;;;;;;;;;4952313;28;20620;-76
2022/09/08 12:07:25;;;;;;;1.75;1.20;;;;;;;;;;4953279;28;20173;-76
2022/09/08 12:10:03;;;;;;;1.67;1.30;;;;;;;;;;4953165;28;20201;-76
2022/09/08 12:12:38;;;;;;;2.28;1.40;;;;;;;;;;4951838;28;20697;-76
2022/09/08 12:15:29;;;;;;;1.90;1.20;;;;;;;;;;4953108;28;20244;-76
2022/09/08 12:18:14;;;;;;;1.40;1.30;;;;;;;;;;4944577;28;20788;-76
2022/09/08 12:20:42;;;;;;;2.08;1.27;;;;;;;;;;4934095;29;20291;-76
2022/09/08 12:23:28;;;;;;;1.55;1.45;;;;;;;;;;4932816;29;20197;-76
2022/09/08 12:26:03;;;;;;;1.50;1.27;;;;;;;;;;4933059;29;20178;-77
2022/09/08 12:28:32;;;;;;;1.30;1.20;;;;;;;;;;4949095;29;20584;-77
2022/09/08 12:31:00;;;;;;;2.05;1.30;;;;;;;;;;4951800;28;20184;-77
2022/09/08 12:33:29;;;;;;;2.13;1.30;;;;;;;;;;4953219;28;20165;-77
2022/09/08 12:36:06;;;;;;;2.47;1.30;;;;;;;;;;4952155;28;20524;-76
2022/09/08 12:38:59;;;;;;;1.92;1.40;;;;;;;;;;4951976;28;20169;-77
2022/09/08 12:41:25;;;;;;;1.40;1.30;;;;;;;;;;4951994;28;20191;-77
2022/09/08 12:43:58;;;;;;;2.00;1.40;;;;;;;;;;4951687;28;20639;-76
2022/09/08 12:46:31;;;;;;;2.33;1.55;;;;;;;;;;4951610;28;20228;-76
2022/09/08 12:49:17;;;;;;;1.27;1.15;;;;;;;;;;4951638;28;20682;-77
2022/09/08 12:51:43;;;;;;;1.53;1.10;;;;;;;;;;4951366;28;20667;-76
2022/09/08 12:54:09;;;;;;;1.52;1.30;;;;;;;;;;4930896;29;20186;-77
2022/09/08 12:56:55;;;;;;;1.65;1.50;;;;;;;;;;4932550;29;20548;-77
2022/09/08 12:59:21;;;;;;;1.58;1.40;;;;;;;;;;4932024;29;20225;-77
2022/09/08 13:01:58;;;;;;;1.15;1.05;;;;;;;;;;4932252;29;20648;-77
2022/09/08 13:04:53;;;;;;;1.10;1.00;;;;;;;;;;4932514;29;20169;-76
2022/09/08 13:07:25;;;;;;;1.52;1.08;;;;;;;;;;4911464;29;20236;-77
2022/09/08 13:10:01;;;;;;;1.20;0.90;;;;;;;;;;4931787;29;20572;-77
2022/09/08 13:12:37;;;;;;;1.25;1.00;;;;;;;;;;4931192;29;20199;-77
2022/09/08 13:15:06;;;;;;;1.33;0.95;;;;;;;;;;4931859;29;20174;-77
2022/09/08 13:17:35;;;;;;;0.98;0.90;;;;;;;;;;4932365;29;20190;-77
2022/09/08 13:20:06;;;;;;;1.70;1.10;;;;;;;;;;4931616;29;20245;-76
2022/09/08 13:22:45;;;;;;;2.28;1.00;;;;;;;;;;4931942;29;20170;-77
2022/09/08 13:25:10;;;;;;;2.08;1.08;;;;;;;;;;4932143;29;20169;-76
2022/09/08 13:27:46;;;;;;;1.27;1.00;;;;;;;;;;4931844;29;20189;-77
2022/09/08 13:30:22;;;;;;;2.33;0.98;;;;;;;;;;4931967;29;20581;-77
2022/09/08 13:33:03;;;;;;;0.90;0.80;;;;;;;;;;4931663;29;20540;-77
2022/09/08 13:35:29;;;;;;;2.50;0.93;;;;;;;;;;4932938;29;20161;-76
2022/09/08 13:38:14;;;;;;;1.45;0.95;;;;;;;;;;4931702;29;20178;-76
2022/09/08 13:41:03;;;;;;;1.58;0.82;;;;;;;;;;4931581;29;20201;-76
2022/09/08 13:43:47;;;;;;;1.33;0.90;;;;;;;;;;4931837;29;20162;-77
2022/09/08 13:46:17;;;;;;;1.60;0.88;;;;;;;;;;4931695;29;20162;-77
2022/09/08 13:48:50;;;;;;;0.63;0.63;;;;;;;;;;4931560;29;20176;-77
2022/09/08 13:51:23;;;;;;;1.50;0.80;;;;;;;;;;4931708;29;20194;-77
2022/09/08 13:53:58;;;;;;;2.83;0.90;;;;;;;;;;4932536;29;20170;-77
2022/09/08 13:56:35;;;;;;;0.90;0.73;;;;;;;;;;4931533;29;20173;-76
2022/09/08 13:59:12;;;;;;;2.25;0.80;;;;;;;;;;4931148;29;20236;-76
2022/09/08 14:01:40;;;;;;;0.95;0.60;;;;;;;;;;4931416;29;20616;-76
2022/09/08 14:04:09;;;;;;;3.95;1.00;;;;;;;;;;4997757;28;20182;-77
2022/09/08 14:06:41;;;;;;;1.58;0.70;;;;;;;;;;4931656;29;20188;-76
2022/09/08 14:09:27;;;;;;;0.85;0.70;;;;;;;;;;4930949;29;20222;-76
2022/09/08 14:12:32;;;;;;;1.95;0.88;;;;;;;;;;4931447;28;20225;-77
2022/09/08 14:15:06;;;;;;;0.98;0.70;;;;;;;;;;4974262;28;20175;-76
2022/09/08 14:17:36;;;;;;;0.95;0.65;;;;;;;;;;4990654;28;20179;-76
2022/09/08 14:20:05;;;;;;;1.02;0.70;;;;;;;;;;4964832;28;20221;-76
2022/09/08 14:22:38;;;;;;;0.65;0.60;;;;;;;;;;4932611;29;20174;-76
2022/09/08 14:25:04;;;;;;;0.88;0.77;;;;;;;;;;4934656;29;20175;-76
2022/09/08 14:27:55;;;;;;;0.90;0.70;;;;;;;;;;4934710;29;20197;-76
2022/09/08 14:30:23;;;;;;;1.50;0.80;;;;;;;;;;4934255;29;20233;-77
2022/09/08 14:32:58;;;;;;;1.13;0.75;;;;;;;;;;5001313;28;20209;-77
2022/09/08 14:35:24;;;;;;;0.63;0.50;;;;;;;;;;4934657;29;20173;-76
2022/09/08 14:38:02;;;;;;;2.05;0.80;;;;;;;;;;4934810;29;20182;-77
2022/09/08 14:40:48;;;;;;;0.60;0.57;;;;;;;;;;4934496;29;20255;-76
2022/09/08 14:43:14;;;;;;;0.50;0.50;;;;;;;;;;4935627;29;20186;-76
2022/09/08 14:45:59;;;;;;;1.23;0.63;;;;;;;;;;4934393;29;20184;-76
2022/09/08 14:48:31;;;;;;;0.88;0.60;;;;;;;;;;4934084;29;20178;-77
2022/09/08 14:51:04;;;;;;;1.10;0.73;;;;;;;;;;4933869;29;20169;-76
2022/09/08 14:53:44;;;;;;;1.08;0.80;;;;;;;;;;4935426;29;20154;-76
2022/09/08 14:56:29;;;;;;;1.80;0.60;;;;;;;;;;4935429;29;20241;-76
2022/09/08 14:59:04;;;;;;;0.73;0.70;;;;;;;;;;4934093;29;20205;-76
2022/09/08 15:01:30;;;;;;;1.10;0.70;;;;;;;;;;4934304;29;20253;-76
2022/09/08 15:04:17;;;;;;;0.90;0.70;;;;;;;;;;4934351;29;20182;-76
2022/09/08 15:06:46;;;;;;;1.52;0.70;;;;;;;;;;4934054;29;20166;-76
2022/09/08 15:09:22;;;;;;;2.17;0.80;;;;;;;;;;4933677;29;20221;-76
2022/09/08 15:11:49;;;;;;;1.13;0.65;;;;;;;;;;4933715;29;20197;-76
2022/09/08 15:14:35;;;;;;;1.25;0.75;;;;;;;;;;4934208;29;20281;-76
2022/09/08 15:17:13;;;;;;;1.38;0.73;;;;;;;;;;4933810;29;20170;-76
2022/09/08 15:19:41;;;;;;;1.75;0.70;;;;;;;;;;4934642;29;20295;-76
2022/09/08 15:22:28;;;;;;;1.13;0.80;;;;;;;;;;4933620;29;20342;-76
2022/09/08 15:24:56;;;;;;;1.10;0.65;;;;;;;;;;4934815;29;20184;-76